createdAt,value
2022-08-25T00:01:46.224Z,8.73
2022-08-25T00:04:17.851Z,5.50
2022-08-25T00:06:46.727Z,8.23
2022-08-25T00:09:16.070Z,5.90
2022-08-25T00:11:43.687Z,5.93
2022-08-25T00:14:14.726Z,10.40
2022-08-25T00:16:41.869Z,8.10
2022-08-25T00:19:12.117Z,8.63
2022-08-25T00:21:40.991Z,6.53
2022-08-25T00:24:12.598Z,5.67
2022-08-25T00:26:45.064Z,6.20
2022-08-25T00:29:14.642Z,8.00
2022-08-25T00:31:44.557Z,8.20
2022-08-25T00:34:16.512Z,9.40
2022-08-25T00:36:44.403Z,6.57
2022-08-25T00:39:11.590Z,6.73
2022-08-25T00:41:41.592Z,7.87
2022-08-25T00:44:10.701Z,5.83
2022-08-25T00:46:42.442Z,8.00
2022-08-25T00:49:35.065Z,8.60
2022-08-25T00:52:12.151Z,7.03
2022-08-25T00:55:01.934Z,9.30
2022-08-25T00:57:36.661Z,6.57
2022-08-25T01:00:10.795Z,9.33
2022-08-25T01:02:39.112Z,8.27
2022-08-25T01:05:06.824Z,10.63
2022-08-25T01:07:34.009Z,8.23
2022-08-25T01:10:01.360Z,10.23
2022-08-25T01:12:30.422Z,7.47
2022-08-25T01:15:01.934Z,9.87
2022-08-25T01:17:57.457Z,8.80
2022-08-25T01:20:30.312Z,7.80
2022-08-25T01:22:58.423Z,9.83
2022-08-25T01:25:46.625Z,10.23
2022-08-25T01:28:14.436Z,18.30
2022-08-25T01:30:44.223Z,7.97
2022-08-25T01:33:12.175Z,10.03
2022-08-25T01:35:43.340Z,7.27
2022-08-25T01:38:12.286Z,8.23
2022-08-25T01:40:40.353Z,8.87
2022-08-25T01:43:07.576Z,8.77
2022-08-25T01:45:35.532Z,8.27
2022-08-25T01:48:03.820Z,6.77
2022-08-25T01:50:31.529Z,12.00
2022-08-25T01:53:07.331Z,23.30
2022-08-25T01:55:51.639Z,9.10
2022-08-25T01:58:33.339Z,9.40
2022-08-25T02:01:07.696Z,13.03
2022-08-25T02:03:42.112Z,20.20
2022-08-25T02:06:12.755Z,20.80
2022-08-25T02:08:40.485Z,12.10
2022-08-25T02:11:12.100Z,11.53
2022-08-25T02:13:42.852Z,11.47
2022-08-25T02:16:15.639Z,7.83
2022-08-25T02:18:45.757Z,14.97
2022-08-25T02:21:12.884Z,11.37
2022-08-25T02:23:42.527Z,17.27
2022-08-25T02:26:12.177Z,12.63
2022-08-25T02:28:38.977Z,7.67
2022-08-25T02:31:06.257Z,15.07
2022-08-25T02:33:33.216Z,13.60
2022-08-25T02:36:05.773Z,13.73
2022-08-25T02:38:32.712Z,16.07
2022-08-25T02:41:03.431Z,14.97
2022-08-25T02:43:33.129Z,16.03
2022-08-25T02:45:59.963Z,11.27
2022-08-25T02:48:26.787Z,13.37
2022-08-25T02:50:58.881Z,10.37
2022-08-25T02:53:25.710Z,9.30
2022-08-25T02:55:52.595Z,12.47
2022-08-25T02:58:19.568Z,10.13
2022-08-25T03:00:49.653Z,8.70
2022-08-25T03:03:17.184Z,11.70
2022-08-25T03:05:47.088Z,10.87
2022-08-25T03:08:16.893Z,10.27
2022-08-25T03:10:43.871Z,9.63
2022-08-25T03:13:10.710Z,16.40
2022-08-25T03:15:37.972Z,11.40
2022-08-25T03:18:08.086Z,10.37
2022-08-25T03:20:35.998Z,10.13
2022-08-25T03:23:03.890Z,15.27
2022-08-25T03:25:52.208Z,13.50
2022-08-25T03:28:28.925Z,14.50
2022-08-25T03:30:57.526Z,16.87
2022-08-25T03:33:28.046Z,13.40
2022-08-25T03:35:55.532Z,11.13
2022-08-25T03:38:25.337Z,11.83
2022-08-25T03:40:53.310Z,9.37
2022-08-25T03:43:23.088Z,13.17
2022-08-25T03:45:49.959Z,10.13
2022-08-25T03:48:17.858Z,10.63
2022-08-25T03:50:50.687Z,12.60
2022-08-25T03:53:19.937Z,15.30
2022-08-25T03:55:47.740Z,16.13
2022-08-25T03:58:14.583Z,15.90
2022-08-25T04:00:44.200Z,14.67
2022-08-25T04:03:13.494Z,21.10
2022-08-25T04:05:40.303Z,12.60
2022-08-25T04:08:08.075Z,18.10
2022-08-25T04:10:36.678Z,19.97
2022-08-25T04:13:08.338Z,16.17
2022-08-25T04:15:35.706Z,18.00
2022-08-25T04:18:03.325Z,18.90
2022-08-25T04:20:30.361Z,16.07
2022-08-25T04:23:00.631Z,22.60
2022-08-25T04:25:27.506Z,18.07
2022-08-25T04:27:55.338Z,17.77
2022-08-25T04:30:22.166Z,20.43
2022-08-25T04:32:49.667Z,24.60
2022-08-25T04:35:16.823Z,19.33
2022-08-25T04:37:48.122Z,23.17
2022-08-25T04:40:15.143Z,23.67
2022-08-25T04:42:42.102Z,18.70
2022-08-25T04:45:09.439Z,22.50
2022-08-25T04:47:39.861Z,27.27
2022-08-25T04:50:07.895Z,22.17
2022-08-25T04:52:34.727Z,17.67
2022-08-25T04:55:01.519Z,17.20
2022-08-25T04:57:28.681Z,18.97
2022-08-25T04:59:55.669Z,19.90
2022-08-25T05:02:25.216Z,21.90
2022-08-25T05:04:52.364Z,18.77
2022-08-25T05:07:19.253Z,24.47
2022-08-25T05:09:48.478Z,22.80
2022-08-25T05:12:15.358Z,20.07
2022-08-25T05:14:42.316Z,18.63
2022-08-25T05:17:09.075Z,17.53
2022-08-25T05:19:36.297Z,16.57
2022-08-25T05:22:04.437Z,15.47
2022-08-25T05:24:31.307Z,14.30
2022-08-25T05:27:00.797Z,16.57
2022-08-25T05:29:30.149Z,16.83
2022-08-25T05:31:59.450Z,13.83
2022-08-25T05:34:26.366Z,19.40
2022-08-25T05:36:57.370Z,13.43
2022-08-25T05:39:26.876Z,12.63
2022-08-25T05:41:56.163Z,18.27
2022-08-25T05:44:25.522Z,13.37
2022-08-25T05:46:52.525Z,14.97
2022-08-25T05:49:19.405Z,16.63
2022-08-25T05:51:46.233Z,15.27
2022-08-25T05:54:15.951Z,20.80
2022-08-25T05:56:42.885Z,17.83
2022-08-25T05:59:09.904Z,18.60
2022-08-25T06:01:55.269Z,26.80
2022-08-25T06:04:24.674Z,21.00
2022-08-25T06:06:54.916Z,23.70
2022-08-25T06:09:22.752Z,13.77
2022-08-25T06:11:54.481Z,14.90
2022-08-25T06:14:22.611Z,18.23
2022-08-25T06:16:51.583Z,23.50
2022-08-25T06:19:21.755Z,25.37
2022-08-25T06:21:49.428Z,16.40
2022-08-25T06:24:16.277Z,23.40
2022-08-25T06:26:44.176Z,24.17
2022-08-25T06:29:11.281Z,19.90
2022-08-25T06:31:40.595Z,21.63
2022-08-25T06:34:10.187Z,22.93
2022-08-25T06:36:36.996Z,17.50
2022-08-25T06:39:04.387Z,21.50
2022-08-25T06:41:37.040Z,23.13
2022-08-25T06:44:05.612Z,18.33
2022-08-25T06:46:36.769Z,20.50
2022-08-25T06:49:05.640Z,17.93
2022-08-25T06:51:32.763Z,19.17
2022-08-25T06:54:00.625Z,15.73
2022-08-25T06:56:27.473Z,13.40
2022-08-25T06:58:54.273Z,15.70
2022-08-25T07:01:26.933Z,18.20
2022-08-25T07:03:59.697Z,15.73
2022-08-25T07:06:31.593Z,13.03
2022-08-25T07:08:59.171Z,16.97
2022-08-25T07:11:26.494Z,20.20
2022-08-25T07:13:53.506Z,18.47
2022-08-25T07:16:22.658Z,18.63
2022-08-25T07:18:56.392Z,18.17
2022-08-25T07:21:32.643Z,17.17
2022-08-25T07:24:04.088Z,17.17
2022-08-25T07:26:38.536Z,17.50
2022-08-25T07:29:11.507Z,13.33
2022-08-25T07:31:38.744Z,15.40
2022-08-25T07:34:26.877Z,18.23
2022-08-25T07:36:56.603Z,19.20
2022-08-25T07:39:25.409Z,20.43
2022-08-25T07:41:52.871Z,18.57
2022-08-25T07:44:21.525Z,14.13
2022-08-25T07:46:49.401Z,18.20
2022-08-25T07:49:23.528Z,15.00
2022-08-25T07:52:03.670Z,25.63
2022-08-25T07:54:35.287Z,18.27
2022-08-25T07:57:04.283Z,13.80
2022-08-25T07:59:38.907Z,14.00
2022-08-25T08:02:09.302Z,16.73
2022-08-25T08:04:51.618Z,15.90
2022-08-25T08:07:43.456Z,15.17
2022-08-25T08:13:03.903Z,14.80
2022-08-25T08:15:31.833Z,13.20
2022-08-25T08:17:59.376Z,15.07
2022-08-25T08:20:29.244Z,13.10
2022-08-25T08:22:56.285Z,15.80
2022-08-25T08:25:27.417Z,14.77
2022-08-25T08:27:55.744Z,13.33
2022-08-25T08:30:25.984Z,14.67
2022-08-25T08:33:11.780Z,15.50
2022-08-25T08:35:40.511Z,15.00
2022-08-25T08:38:14.447Z,15.43
2022-08-25T08:41:25.538Z,20.00
2022-08-25T08:44:13.055Z,14.20
2022-08-25T08:47:09.099Z,16.73
2022-08-25T08:49:51.692Z,13.60
2022-08-25T08:52:24.463Z,14.00
2022-08-25T08:55:00.429Z,13.03
2022-08-25T08:57:35.964Z,14.63
2022-08-25T09:00:06.067Z,14.67
2022-08-25T09:02:51.476Z,10.00
2022-08-25T09:05:21.246Z,10.57
2022-08-25T09:07:54.822Z,10.77
2022-08-25T09:10:27.080Z,11.60
2022-08-25T09:13:12.223Z,9.43
2022-08-25T09:16:05.844Z,12.70
2022-08-25T09:18:57.599Z,8.30
2022-08-25T09:21:42.187Z,8.80
2022-08-25T09:24:20.455Z,9.77
2022-08-25T09:27:20.659Z,8.07
2022-08-25T09:30:03.146Z,10.33
2022-08-25T09:32:37.579Z,6.50
2022-08-25T09:35:16.944Z,7.17
2022-08-25T09:37:43.799Z,9.77
2022-08-25T09:40:12.074Z,11.70
2022-08-25T09:42:57.842Z,7.87
2022-08-25T09:45:44.295Z,6.50
2022-08-25T09:48:23.947Z,9.77
2022-08-25T09:50:54.267Z,7.40
2022-08-25T09:53:22.547Z,6.10
2022-08-25T09:56:05.891Z,8.87
2022-08-25T09:58:33.150Z,13.53
2022-08-25T10:01:01.669Z,7.60
2022-08-25T10:03:30.823Z,8.83
2022-08-25T10:06:14.982Z,14.20
2022-08-25T10:08:57.452Z,10.63
2022-08-25T10:11:38.264Z,7.83
2022-08-25T10:14:14.453Z,13.43
2022-08-25T10:16:47.004Z,8.00
2022-08-25T10:19:23.827Z,8.57
2022-08-25T10:22:21.223Z,6.70
2022-08-25T10:24:49.419Z,7.93
2022-08-25T10:27:23.638Z,9.10
2022-08-25T10:29:59.891Z,9.10
2022-08-25T10:32:54.496Z,6.23
2022-08-25T10:35:51.900Z,6.03
2022-08-25T10:38:37.978Z,12.40
2022-08-25T10:41:19.904Z,5.33
2022-08-25T10:44:41.655Z,7.73
2022-08-25T10:47:28.832Z,9.37
2022-08-25T10:50:17.265Z,4.63
2022-08-25T10:53:19.782Z,8.17
2022-08-25T10:55:55.461Z,4.63
2022-08-25T10:58:41.430Z,11.53
2022-08-25T11:01:16.871Z,9.80
2022-08-25T11:04:19.957Z,13.07
2022-08-25T11:07:00.530Z,4.93
2022-08-25T11:09:41.122Z,8.80
2022-08-25T11:12:17.113Z,6.33
2022-08-25T11:14:52.176Z,8.67
2022-08-25T11:17:26.837Z,4.83
2022-08-25T11:20:00.861Z,14.53
2022-08-25T11:22:42.718Z,9.63
2022-08-25T11:25:31.474Z,7.93
2022-08-25T11:28:55.543Z,5.87
2022-08-25T11:31:27.739Z,5.93
2022-08-25T11:33:56.606Z,14.87
2022-08-25T11:36:36.149Z,4.70
2022-08-25T11:39:33.996Z,8.20
2022-08-25T11:42:19.710Z,8.00
2022-08-25T11:45:10.712Z,7.10
2022-08-25T11:47:46.654Z,10.03
2022-08-25T11:50:57.492Z,6.20
2022-08-25T11:53:33.061Z,8.00
2022-08-25T11:56:09.650Z,7.63
2022-08-25T11:58:45.125Z,8.70
2022-08-25T12:01:35.738Z,10.40
2022-08-25T12:04:33.859Z,6.83
2022-08-25T12:07:11.066Z,14.83
2022-08-25T12:09:55.828Z,7.10
2022-08-25T12:12:41.776Z,5.77
2022-08-25T12:15:31.334Z,8.93
2022-08-25T12:18:18.777Z,7.10
2022-08-25T12:20:55.100Z,4.33
2022-08-25T12:24:05.774Z,4.63
2022-08-25T12:26:53.924Z,5.33
2022-08-25T12:29:30.669Z,6.23
2022-08-25T12:32:03.177Z,5.70
2022-08-25T12:34:41.931Z,5.07
2022-08-25T12:37:19.397Z,8.63
2022-08-25T12:39:50.617Z,9.90
2022-08-25T12:42:38.166Z,4.23
2022-08-25T12:45:31.248Z,10.03
2022-08-25T12:48:25.407Z,3.80
2022-08-25T12:50:57.771Z,6.47
2022-08-25T12:53:55.558Z,5.27
2022-08-25T12:56:35.071Z,5.53
2022-08-25T12:59:25.080Z,5.27
2022-08-25T13:02:20.072Z,7.47
2022-08-25T13:04:59.027Z,11.37
2022-08-25T13:07:43.553Z,3.08
2022-08-25T13:10:42.323Z,7.78
2022-08-25T13:13:30.368Z,2.63
2022-08-25T13:16:04.919Z,2.83
2022-08-25T13:18:36.361Z,4.32
2022-08-25T13:21:19.010Z,4.80
2022-08-25T13:23:50.235Z,3.38
2022-08-25T13:26:33.137Z,6.70
2022-08-25T13:29:09.389Z,4.60
2022-08-25T13:31:38.538Z,5.13
2022-08-25T13:34:19.377Z,4.28
2022-08-25T13:37:07.455Z,6.97
2022-08-25T13:42:28.726Z,8.80
2022-08-25T13:44:56.803Z,5.00
2022-08-25T13:47:43.851Z,5.22
2022-08-25T13:50:28.432Z,3.45
2022-08-25T13:53:21.608Z,9.18
2022-08-25T13:55:53.299Z,5.03
2022-08-25T13:58:39.386Z,5.38
2022-08-25T14:01:48.107Z,7.85
2022-08-25T14:04:26.827Z,3.80
2022-08-25T14:07:33.695Z,9.18
2022-08-25T14:10:30.842Z,2.55
2022-08-25T14:13:15.450Z,6.30
2022-08-25T14:15:45.278Z,6.32
2022-08-25T14:18:21.602Z,2.70
2022-08-25T14:20:56.207Z,3.97
2022-08-25T14:23:27.006Z,6.00
2022-08-25T14:25:56.497Z,6.80
2022-08-25T14:28:30.350Z,6.45
2022-08-25T14:31:05.785Z,4.78
2022-08-25T14:33:50.047Z,4.78
2022-08-25T14:36:20.689Z,2.20
2022-08-25T14:38:54.446Z,1.95
2022-08-25T14:41:23.709Z,5.57
2022-08-25T14:43:50.669Z,4.00
2022-08-25T14:46:21.361Z,4.20
2022-08-25T14:48:54.582Z,3.80
2022-08-25T14:51:23.545Z,4.28
2022-08-25T14:53:53.888Z,5.10
2022-08-25T14:56:20.748Z,6.00
2022-08-25T14:58:51.416Z,6.30
2022-08-25T15:01:28.530Z,3.57
2022-08-25T15:04:07.434Z,7.60
2022-08-25T15:06:36.187Z,13.50
2022-08-25T15:09:08.477Z,10.97
2022-08-25T15:11:38.734Z,4.53
2022-08-25T15:14:10.806Z,8.60
2022-08-25T15:16:42.031Z,4.83
2022-08-25T15:19:14.578Z,6.40
2022-08-25T15:21:44.746Z,5.77
2022-08-25T15:24:12.407Z,13.00
2022-08-25T15:29:31.335Z,8.53
2022-08-25T15:32:00.588Z,7.90
2022-08-25T15:34:27.855Z,8.73
2022-08-25T15:36:56.277Z,9.17
2022-08-25T15:39:26.374Z,7.80
2022-08-25T15:41:53.525Z,6.80
2022-08-25T15:44:29.048Z,7.23
2022-08-25T15:46:56.574Z,7.33
2022-08-25T15:49:24.284Z,5.53
2022-08-25T15:51:55.056Z,5.83
2022-08-25T15:54:24.057Z,10.97
2022-08-25T15:56:57.674Z,8.10
2022-08-25T15:59:26.162Z,16.63
2022-08-25T16:01:54.712Z,7.90
2022-08-25T16:04:26.343Z,6.90
2022-08-25T16:06:56.276Z,7.70
2022-08-25T16:09:23.723Z,3.73
2022-08-25T16:11:55.866Z,8.47
2022-08-25T16:14:23.873Z,9.13
2022-08-25T16:16:53.447Z,15.23
2022-08-25T16:19:25.848Z,7.07
2022-08-25T16:21:55.649Z,11.43
2022-08-25T16:24:22.676Z,10.40
2022-08-25T16:26:50.240Z,16.03
2022-08-25T16:29:21.544Z,6.90
2022-08-25T16:31:53.196Z,12.83
2022-08-25T16:34:22.416Z,13.70
2022-08-25T16:36:53.335Z,10.70
2022-08-25T16:39:24.541Z,6.00
2022-08-25T16:41:52.491Z,4.83
2022-08-25T16:44:22.747Z,15.87
2022-08-25T16:46:54.231Z,10.33
2022-08-25T16:49:24.533Z,18.43
2022-08-25T16:51:56.947Z,8.00
2022-08-25T16:54:44.200Z,14.17
2022-08-25T16:57:11.969Z,14.63
2022-08-25T16:59:39.035Z,11.93
2022-08-25T17:02:06.635Z,12.80
2022-08-25T17:04:33.565Z,15.20
2022-08-25T17:07:02.905Z,8.77
2022-08-25T17:09:32.032Z,20.40
2022-08-25T17:12:01.378Z,12.23
2022-08-25T17:14:28.796Z,22.30
2022-08-25T17:16:58.236Z,12.63
2022-08-25T17:19:25.856Z,13.57
2022-08-25T17:21:54.872Z,12.87
2022-08-25T17:24:22.368Z,12.47
2022-08-25T17:26:56.699Z,10.13
2022-08-25T17:29:23.620Z,10.23
2022-08-25T17:31:52.768Z,11.70
2022-08-25T17:34:23.101Z,14.40
2022-08-25T17:36:51.354Z,9.10
2022-08-25T17:39:19.703Z,8.77
2022-08-25T17:41:49.550Z,8.40
2022-08-25T17:44:17.184Z,12.57
2022-08-25T17:46:47.383Z,19.57
2022-08-25T17:49:17.085Z,12.23
2022-08-25T17:51:44.064Z,18.07
2022-08-25T17:54:14.859Z,15.13
2022-08-25T17:56:41.936Z,10.10
2022-08-25T17:59:09.303Z,10.30
2022-08-25T18:01:40.804Z,18.27
2022-08-25T18:04:17.408Z,8.83
2022-08-25T18:06:46.219Z,16.37
2022-08-25T18:09:13.490Z,14.77
2022-08-25T18:11:40.410Z,13.80
2022-08-25T18:14:11.340Z,9.03
2022-08-25T18:16:40.867Z,11.33
2022-08-25T18:19:12.424Z,9.63
2022-08-25T18:21:41.625Z,13.27
2022-08-25T18:24:13.599Z,11.40
2022-08-25T18:26:40.542Z,14.00
2022-08-25T18:29:12.168Z,10.43
2022-08-25T18:31:41.099Z,10.20
2022-08-25T18:34:11.671Z,14.50
2022-08-25T18:36:42.838Z,22.90
2022-08-25T18:39:34.517Z,9.13
2022-08-25T18:42:05.941Z,12.37
2022-08-25T18:44:36.208Z,17.63
2022-08-25T18:47:07.350Z,10.47
2022-08-25T18:49:37.754Z,7.17
2022-08-25T18:52:04.823Z,18.13
2022-08-25T18:54:31.606Z,29.63
2022-08-25T18:57:01.056Z,11.07
2022-08-25T18:59:27.871Z,14.87
2022-08-25T19:01:58.093Z,19.93
2022-08-25T19:04:31.915Z,12.73
2022-08-25T19:07:00.171Z,15.53
2022-08-25T19:09:26.972Z,14.40
2022-08-25T19:11:57.609Z,19.10
2022-08-25T19:14:24.409Z,10.00
2022-08-25T19:16:58.760Z,16.30
2022-08-25T19:19:26.503Z,13.07
2022-08-25T19:21:55.512Z,15.93
2022-08-25T19:24:24.872Z,15.07
2022-08-25T19:26:54.871Z,7.43
2022-08-25T19:29:25.193Z,18.03
2022-08-25T19:31:53.190Z,10.17
2022-08-25T19:34:30.287Z,11.90
2022-08-25T19:37:00.470Z,7.87
2022-08-25T19:39:27.613Z,22.33
2022-08-25T19:41:55.972Z,12.30
2022-08-25T19:44:23.678Z,15.10
2022-08-25T19:46:51.316Z,12.67
2022-08-25T19:49:23.065Z,15.53
2022-08-25T19:51:53.071Z,18.63
2022-08-25T19:54:33.254Z,13.30
2022-08-25T19:57:01.219Z,10.40
2022-08-25T19:59:40.648Z,6.77
2022-08-25T20:02:15.075Z,15.20
2022-08-25T20:04:49.587Z,27.23
2022-08-25T20:07:19.078Z,9.47
2022-08-25T20:09:46.306Z,18.30
2022-08-25T20:14:46.807Z,13.20
2022-08-25T20:17:23.532Z,16.97
2022-08-25T20:19:57.329Z,11.20
2022-08-25T20:22:27.167Z,20.63
2022-08-25T20:24:59.732Z,15.63
2022-08-25T20:27:32.230Z,24.10
2022-08-25T20:30:03.224Z,20.50
2022-08-25T20:32:32.896Z,11.50
2022-08-25T20:35:01.002Z,12.13
2022-08-25T20:37:30.928Z,10.20
2022-08-25T20:39:58.015Z,17.60
2022-08-25T20:42:25.031Z,9.13
2022-08-25T20:44:52.865Z,17.77
2022-08-25T20:47:21.085Z,32.17
2022-08-25T20:49:50.174Z,17.40
2022-08-25T20:52:19.650Z,12.90
2022-08-25T20:54:49.485Z,17.07
2022-08-25T20:57:25.946Z,11.03
2022-08-25T20:59:56.649Z,12.00
2022-08-25T21:02:27.186Z,10.70
2022-08-25T21:04:54.721Z,13.23
2022-08-25T21:07:26.938Z,20.30
2022-08-25T21:09:55.212Z,19.07
2022-08-25T21:12:22.456Z,18.70
2022-08-25T21:14:49.329Z,17.43
2022-08-25T21:17:19.138Z,13.93
2022-08-25T21:22:22.807Z,19.37
2022-08-25T21:24:52.444Z,10.90
2022-08-25T21:27:19.679Z,15.30
2022-08-25T21:29:53.760Z,12.07
2022-08-25T21:32:22.722Z,13.10
2022-08-25T21:34:59.040Z,19.13
2022-08-25T21:37:26.849Z,11.77
2022-08-25T21:39:54.015Z,14.90
2022-08-25T21:42:22.547Z,17.83
2022-08-25T21:44:50.215Z,16.27
2022-08-25T21:47:21.306Z,11.57
2022-08-25T21:49:51.128Z,15.40
2022-08-25T21:52:18.718Z,17.67
2022-08-25T21:54:48.632Z,14.90
2022-08-25T21:57:19.096Z,16.33
2022-08-25T21:59:52.699Z,16.50
2022-08-25T22:02:22.622Z,10.00
2022-08-25T22:04:53.755Z,9.50
2022-08-25T22:07:22.454Z,9.90
2022-08-25T22:09:52.106Z,18.97
2022-08-25T22:12:22.336Z,10.70
2022-08-25T22:14:51.748Z,13.30
2022-08-25T22:17:21.118Z,19.23
2022-08-25T22:19:53.935Z,13.87
2022-08-25T22:22:21.363Z,14.53
2022-08-25T22:24:48.281Z,18.30
2022-08-25T22:27:17.617Z,10.60
2022-08-25T22:29:44.558Z,8.80
2022-08-25T22:32:13.891Z,12.83
2022-08-25T22:34:41.394Z,10.00
2022-08-25T22:37:13.101Z,16.43
2022-08-25T22:39:46.420Z,10.27
2022-08-25T22:42:14.072Z,8.33
2022-08-25T22:44:42.427Z,14.23
2022-08-25T22:47:12.409Z,13.93
2022-08-25T22:49:44.417Z,13.30
2022-08-25T22:52:13.153Z,14.53
2022-08-25T22:54:45.031Z,10.67
2022-08-25T22:57:12.411Z,8.63
2022-08-25T22:59:39.935Z,14.33
2022-08-25T23:02:07.455Z,13.20
2022-08-25T23:04:41.265Z,9.37
2022-08-25T23:07:13.716Z,12.80
2022-08-25T23:09:44.611Z,17.13
2022-08-25T23:12:14.070Z,15.93
2022-08-25T23:14:44.461Z,8.17
2022-08-25T23:17:11.405Z,13.93
2022-08-25T23:19:39.074Z,13.53
2022-08-25T23:22:09.529Z,12.30
2022-08-25T23:24:43.041Z,14.23
2022-08-25T23:27:13.575Z,7.50
2022-08-25T23:29:43.180Z,6.60
2022-08-25T23:32:15.847Z,10.23
2022-08-25T23:34:46.767Z,10.50
2022-08-25T23:37:15.009Z,7.10
2022-08-25T23:39:45.828Z,12.83
2022-08-25T23:42:12.937Z,10.20
2022-08-25T23:44:39.702Z,10.60
2022-08-25T23:47:07.160Z,18.73
2022-08-25T23:49:36.951Z,14.53
2022-08-25T23:52:04.372Z,7.03
2022-08-25T23:54:31.845Z,13.93
2022-08-25T23:57:02.098Z,20.20
2022-08-25T23:59:29.205Z,10.47
